createdAt,value
2023-11-15T00:00:07.953Z,13.68
2023-11-15T00:02:36.079Z,13.82
2023-11-15T00:05:04.390Z,13.75
2023-11-15T00:07:49.850Z,13.86
2023-11-15T00:10:17.482Z,13.81
2023-11-15T00:12:45.115Z,13.88
2023-11-15T00:15:13.202Z,13.95
2023-11-15T00:17:40.873Z,13.87
2023-11-15T00:20:09.457Z,13.84
2023-11-15T00:22:36.852Z,13.87
2023-11-15T00:25:04.654Z,14.16
2023-11-15T00:27:32.777Z,14.23
2023-11-15T00:29:59.995Z,14.24
2023-11-15T00:32:27.776Z,14.16
2023-11-15T00:34:55.068Z,14.03
2023-11-15T00:37:22.455Z,14.13
2023-11-15T00:39:50.109Z,13.87
2023-11-15T00:42:17.359Z,13.98
2023-11-15T00:44:44.641Z,13.88
2023-11-15T00:47:12.337Z,13.99
2023-11-15T00:49:39.867Z,13.92
2023-11-15T00:52:07.445Z,13.94
2023-11-15T00:54:35.102Z,13.81
2023-11-15T00:57:02.320Z,14.08
2023-11-15T00:59:38.248Z,14.22
2023-11-15T01:02:06.753Z,14.15
2023-11-15T01:04:34.343Z,14.02
2023-11-15T01:07:02.827Z,13.89
2023-11-15T01:09:30.712Z,13.96
2023-11-15T01:11:58.063Z,13.98
2023-11-15T01:14:25.454Z,13.94
2023-11-15T01:16:53.298Z,13.89
2023-11-15T01:19:20.730Z,13.86
2023-11-15T01:21:48.320Z,14.09
2023-11-15T01:24:17.733Z,14.13
2023-11-15T01:26:45.124Z,14.05
2023-11-15T01:29:12.964Z,13.99
2023-11-15T01:31:40.508Z,13.85
2023-11-15T01:34:07.886Z,13.91
2023-11-15T01:36:35.456Z,14.01
2023-11-15T01:39:05.468Z,13.75
2023-11-15T01:41:32.943Z,13.84
2023-11-15T01:44:00.268Z,13.87
2023-11-15T01:46:27.855Z,13.73
2023-11-15T01:48:55.313Z,13.80
2023-11-15T01:51:22.669Z,13.89
2023-11-15T01:53:50.444Z,13.93
2023-11-15T01:56:17.951Z,13.74
2023-11-15T01:58:45.396Z,13.80
2023-11-15T02:01:13.356Z,13.82
2023-11-15T02:03:41.172Z,13.90
2023-11-15T02:06:08.593Z,14.00
2023-11-15T02:08:36.185Z,13.61
2023-11-15T02:11:04.517Z,13.54
2023-11-15T02:13:31.849Z,13.66
2023-11-15T02:15:59.434Z,13.54
2023-11-15T02:18:27.208Z,13.70
2023-11-15T02:20:55.074Z,13.51
2023-11-15T02:23:22.674Z,13.62
2023-11-15T02:25:52.339Z,13.62
2023-11-15T02:28:20.155Z,13.50
2023-11-15T02:30:47.631Z,13.65
2023-11-15T02:33:17.252Z,13.45
2023-11-15T02:35:45.288Z,13.58
2023-11-15T02:38:12.635Z,13.63
2023-11-15T02:40:44.692Z,13.64
2023-11-15T02:43:13.909Z,13.46
2023-11-15T02:45:41.714Z,13.67
2023-11-15T02:48:10.022Z,13.54
2023-11-15T02:50:37.738Z,13.38
2023-11-15T02:53:05.144Z,13.47
2023-11-15T02:55:32.441Z,13.26
2023-11-15T02:58:02.069Z,13.36
2023-11-15T03:00:30.503Z,13.20
2023-11-15T03:02:57.933Z,13.07
2023-11-15T03:05:25.681Z,13.10
2023-11-15T03:07:53.372Z,13.07
2023-11-15T03:10:20.632Z,13.23
2023-11-15T03:12:49.769Z,13.02
2023-11-15T03:15:17.248Z,13.01
2023-11-15T03:17:45.077Z,13.13
2023-11-15T03:20:12.774Z,13.22
2023-11-15T03:22:40.131Z,13.25
2023-11-15T03:25:08.120Z,13.00
2023-11-15T03:27:35.794Z,13.01
2023-11-15T03:30:04.121Z,12.99
2023-11-15T03:32:31.841Z,13.04
2023-11-15T03:34:59.553Z,13.14
2023-11-15T03:37:27.883Z,13.08
2023-11-15T03:39:55.113Z,13.13
2023-11-15T03:42:22.907Z,13.11
2023-11-15T03:44:50.190Z,13.15
2023-11-15T03:47:17.460Z,13.18
2023-11-15T03:49:47.206Z,12.76
2023-11-15T03:52:14.465Z,12.85
2023-11-15T03:54:41.776Z,12.73
2023-11-15T03:57:11.938Z,12.77
2023-11-15T03:59:39.571Z,12.94
2023-11-15T04:02:07.747Z,12.67
2023-11-15T04:04:38.457Z,12.57
2023-11-15T04:07:05.921Z,12.24
2023-11-15T04:09:33.969Z,12.41
2023-11-15T04:12:01.899Z,12.29
2023-11-15T04:14:29.425Z,12.30
2023-11-15T04:16:56.673Z,12.35
2023-11-15T04:19:24.420Z,12.31
2023-11-15T04:22:05.109Z,12.06
2023-11-15T04:24:40.222Z,12.12
2023-11-15T04:27:08.320Z,12.05
2023-11-15T04:29:37.811Z,12.00
2023-11-15T04:32:05.383Z,12.03
2023-11-15T04:34:32.844Z,12.10
2023-11-15T04:37:00.086Z,11.91
2023-11-15T04:39:27.630Z,11.91
2023-11-15T04:41:55.145Z,11.98
2023-11-15T04:44:22.652Z,12.15
2023-11-15T04:46:50.399Z,12.27
2023-11-15T04:49:17.638Z,12.09
2023-11-15T04:51:44.924Z,11.94
2023-11-15T04:54:12.877Z,11.67
2023-11-15T04:56:40.364Z,11.79
2023-11-15T04:59:07.713Z,11.89
2023-11-15T05:01:35.583Z,11.65
2023-11-15T05:04:03.311Z,11.80
2023-11-15T05:06:30.974Z,11.68
2023-11-15T05:09:00.634Z,11.53
2023-11-15T05:11:28.013Z,11.57
2023-11-15T05:13:55.392Z,11.60
2023-11-15T05:16:23.544Z,11.59
2023-11-15T05:18:50.960Z,11.75
2023-11-15T05:21:18.332Z,11.59
2023-11-15T05:26:13.664Z,11.84
2023-11-15T05:28:42.997Z,11.90
2023-11-15T05:31:10.665Z,11.87
2023-11-15T05:33:38.074Z,11.94
2023-11-15T05:36:05.607Z,12.18
2023-11-15T05:38:33.419Z,11.89
2023-11-15T05:41:00.738Z,11.88
2023-11-15T05:43:27.967Z,12.18
2023-11-15T05:45:55.643Z,12.04
2023-11-15T05:48:23.224Z,12.28
2023-11-15T05:50:51.247Z,12.24
2023-11-15T05:53:21.007Z,12.27
2023-11-15T05:55:48.444Z,12.26
2023-11-15T05:58:15.765Z,11.98
2023-11-15T06:00:43.515Z,12.31
2023-11-15T06:03:11.602Z,12.15
2023-11-15T06:05:39.776Z,12.42
2023-11-15T06:08:07.206Z,12.13
2023-11-15T06:10:34.699Z,12.12
2023-11-15T06:13:02.445Z,12.02
2023-11-15T06:15:29.873Z,12.15
2023-11-15T06:17:57.836Z,12.15
2023-11-15T06:20:25.158Z,11.80
2023-11-15T06:22:52.637Z,12.06
2023-11-15T06:25:21.277Z,12.22
2023-11-15T06:27:48.619Z,12.22
2023-11-15T06:30:18.387Z,12.22
2023-11-15T06:32:46.600Z,12.11
2023-11-15T06:35:20.357Z,11.95
2023-11-15T06:37:49.969Z,11.94
2023-11-15T06:40:17.460Z,11.93
2023-11-15T06:42:44.986Z,11.63
2023-11-15T06:45:15.669Z,12.00
2023-11-15T06:47:43.886Z,11.98
2023-11-15T06:50:11.677Z,12.19
2023-11-15T06:52:39.651Z,12.04
2023-11-15T06:55:07.747Z,12.08
2023-11-15T06:57:35.112Z,12.11
2023-11-15T07:00:06.153Z,12.04
2023-11-15T07:02:33.613Z,11.86
2023-11-15T07:05:01.265Z,12.03
2023-11-15T07:07:28.861Z,12.06
2023-11-15T07:09:56.580Z,12.26
2023-11-15T07:12:25.141Z,12.16
2023-11-15T07:14:53.848Z,12.12
2023-11-15T07:17:21.258Z,12.28
2023-11-15T07:19:51.769Z,12.46
2023-11-15T07:22:19.539Z,12.49
2023-11-15T07:24:46.818Z,12.41
2023-11-15T07:27:14.211Z,12.45
2023-11-15T07:29:42.062Z,12.70
2023-11-15T07:32:09.387Z,12.87
2023-11-15T07:34:37.716Z,12.94
2023-11-15T07:37:05.319Z,12.95
2023-11-15T07:39:32.752Z,12.78
2023-11-15T07:42:00.651Z,12.96
2023-11-15T07:44:31.392Z,13.08
2023-11-15T07:47:00.645Z,13.03
2023-11-15T07:49:29.973Z,13.01
2023-11-15T07:51:57.410Z,13.25
2023-11-15T07:54:25.131Z,13.14
2023-11-15T07:56:53.073Z,13.23
2023-11-15T07:59:22.896Z,13.36
2023-11-15T08:01:50.311Z,13.30
2023-11-15T08:04:18.416Z,13.37
2023-11-15T08:06:46.945Z,13.43
2023-11-15T08:09:27.961Z,13.59
2023-11-15T08:11:57.033Z,13.36
2023-11-15T08:14:25.582Z,13.55
2023-11-15T08:16:53.424Z,13.57
2023-11-15T08:19:20.975Z,13.52
2023-11-15T08:21:48.685Z,13.64
2023-11-15T08:24:22.867Z,13.70
2023-11-15T08:26:54.385Z,13.85
2023-11-15T08:29:22.540Z,13.94
2023-11-15T08:31:50.810Z,13.93
2023-11-15T08:34:23.167Z,13.78
2023-11-15T08:36:51.703Z,14.02
2023-11-15T08:39:19.382Z,13.98
2023-11-15T08:41:48.148Z,13.93
2023-11-15T08:44:16.512Z,14.04
2023-11-15T08:46:46.283Z,14.02
2023-11-15T08:49:14.360Z,14.34
2023-11-15T08:51:42.690Z,14.25
2023-11-15T08:54:11.428Z,14.25
2023-11-15T08:56:42.513Z,14.34
2023-11-15T08:59:15.891Z,14.29
2023-11-15T09:01:45.960Z,14.46
2023-11-15T09:04:14.915Z,14.36
2023-11-15T09:06:42.897Z,14.39
2023-11-15T09:09:10.308Z,14.30
2023-11-15T09:11:38.158Z,14.40
2023-11-15T09:14:09.558Z,14.27
2023-11-15T09:16:38.077Z,14.42
2023-11-15T09:19:05.963Z,14.47
2023-11-15T09:21:37.966Z,14.58
2023-11-15T09:24:07.108Z,14.62
2023-11-15T09:26:37.169Z,14.62
2023-11-15T09:29:05.143Z,14.60
2023-11-15T09:31:35.093Z,14.61
2023-11-15T09:34:02.535Z,14.48
2023-11-15T09:36:29.854Z,14.23
2023-11-15T09:38:57.484Z,14.14
2023-11-15T09:41:26.137Z,14.27
2023-11-15T09:43:56.633Z,14.28
2023-11-15T09:46:24.543Z,14.36
2023-11-15T09:48:57.190Z,14.12
2023-11-15T09:51:27.744Z,14.07
2023-11-15T09:54:05.000Z,14.01
2023-11-15T09:56:44.610Z,14.00
2023-11-15T09:59:12.695Z,14.16
2023-11-15T10:01:44.012Z,14.31
2023-11-15T10:04:21.449Z,14.15
2023-11-15T10:06:49.393Z,14.34
2023-11-15T10:09:17.001Z,14.48
2023-11-15T10:11:50.527Z,14.56
2023-11-15T10:14:18.355Z,14.82
2023-11-15T10:16:52.126Z,14.67
2023-11-15T10:19:24.483Z,14.31
2023-11-15T10:21:58.697Z,14.12
2023-11-15T10:24:29.515Z,14.31
2023-11-15T10:26:57.343Z,14.40
2023-11-15T10:29:27.394Z,14.48
2023-11-15T10:31:57.987Z,14.55
2023-11-15T10:34:33.950Z,14.64
2023-11-15T10:37:04.205Z,14.84
2023-11-15T10:39:33.334Z,14.76
2023-11-15T10:42:02.256Z,14.74
2023-11-15T10:44:30.549Z,14.59
2023-11-15T10:46:59.256Z,14.55
2023-11-15T10:49:27.217Z,14.41
2023-11-15T10:51:55.687Z,14.35
2023-11-15T10:54:23.027Z,14.02
2023-11-15T10:56:50.929Z,14.31
2023-11-15T10:59:20.286Z,14.14
2023-11-15T11:01:47.713Z,13.95
2023-11-15T11:04:17.084Z,14.09
2023-11-15T11:06:59.482Z,14.08
2023-11-15T11:09:29.437Z,14.17
2023-11-15T11:12:02.078Z,14.22
2023-11-15T11:14:29.393Z,14.23
2023-11-15T11:16:58.137Z,14.01
2023-11-15T11:19:27.170Z,14.31
2023-11-15T11:22:04.724Z,13.96
2023-11-15T11:24:36.175Z,14.30
2023-11-15T11:27:10.468Z,14.40
2023-11-15T11:29:57.042Z,14.44
2023-11-15T11:32:35.621Z,14.25
2023-11-15T11:35:06.968Z,14.51
2023-11-15T11:37:56.949Z,14.65
2023-11-15T11:40:25.223Z,14.72
2023-11-15T11:42:53.945Z,14.54
2023-11-15T11:45:21.865Z,14.80
2023-11-15T11:47:49.921Z,14.92
2023-11-15T11:50:17.563Z,15.07
2023-11-15T11:52:44.813Z,14.85
2023-11-15T11:55:12.685Z,14.71
2023-11-15T11:57:39.932Z,14.79
2023-11-15T12:00:13.388Z,14.80
2023-11-15T12:02:42.212Z,14.52
2023-11-15T12:05:13.069Z,14.74
2023-11-15T12:07:44.432Z,14.83
2023-11-15T12:10:12.364Z,15.02
2023-11-15T12:12:40.742Z,15.16
2023-11-15T12:15:14.446Z,15.11
2023-11-15T12:17:46.817Z,15.17
2023-11-15T12:20:14.652Z,14.92
2023-11-15T12:22:46.051Z,14.75
2023-11-15T12:25:17.275Z,15.00
2023-11-15T12:27:44.934Z,14.99
2023-11-15T12:30:12.491Z,15.34
2023-11-15T12:32:42.807Z,15.63
2023-11-15T12:35:10.525Z,15.66
2023-11-15T12:37:38.251Z,15.54
2023-11-15T12:40:19.085Z,15.53
2023-11-15T12:42:46.912Z,15.95
2023-11-15T12:45:29.400Z,16.00
2023-11-15T12:48:00.672Z,15.58
2023-11-15T12:50:29.079Z,15.89
2023-11-15T12:53:03.428Z,15.69
2023-11-15T12:55:54.443Z,15.51
2023-11-15T12:58:28.174Z,15.80
2023-11-15T13:00:58.685Z,15.44
2023-11-15T13:03:34.643Z,15.69
2023-11-15T13:06:08.632Z,15.76
2023-11-15T13:08:36.489Z,15.80
2023-11-15T13:11:15.797Z,15.49
2023-11-15T13:13:45.808Z,15.45
2023-11-15T13:16:16.264Z,15.62
2023-11-15T13:18:44.580Z,15.94
2023-11-15T13:21:13.770Z,16.04
2023-11-15T13:23:41.594Z,15.91
2023-11-15T13:26:13.335Z,16.04
2023-11-15T13:28:41.071Z,15.70
2023-11-15T13:31:09.024Z,15.54
2023-11-15T13:33:37.640Z,15.44
2023-11-15T13:36:06.753Z,15.34
2023-11-15T13:38:34.828Z,15.46
2023-11-15T13:41:08.604Z,15.62
2023-11-15T13:43:37.969Z,15.50
2023-11-15T13:46:05.997Z,15.76
2023-11-15T13:48:37.398Z,15.91
2023-11-15T13:51:07.812Z,15.74
2023-11-15T13:53:40.177Z,15.42
2023-11-15T13:56:08.509Z,15.47
2023-11-15T13:58:37.657Z,15.33
2023-11-15T14:01:05.952Z,15.35
2023-11-15T14:03:34.158Z,15.31
2023-11-15T14:06:06.058Z,15.31
2023-11-15T14:08:51.305Z,15.50
2023-11-15T14:11:25.216Z,15.42
2023-11-15T14:13:53.018Z,15.56
2023-11-15T14:16:22.165Z,15.58
2023-11-15T14:18:51.179Z,15.78
2023-11-15T14:21:21.445Z,15.62
2023-11-15T14:23:49.536Z,15.79
2023-11-15T14:26:17.014Z,15.88
2023-11-15T14:28:45.171Z,15.78
2023-11-15T14:31:12.673Z,15.52
2023-11-15T14:33:40.456Z,15.39
2023-11-15T14:36:08.795Z,15.14
2023-11-15T14:38:38.148Z,15.28
2023-11-15T14:41:05.671Z,15.61
2023-11-15T14:43:33.797Z,15.38
2023-11-15T14:46:02.540Z,15.50
2023-11-15T14:48:31.261Z,15.80
2023-11-15T14:51:01.321Z,15.78
2023-11-15T14:53:28.862Z,15.64
2023-11-15T14:55:56.816Z,15.59
2023-11-15T14:58:26.306Z,15.43
2023-11-15T15:00:53.787Z,15.42
2023-11-15T15:03:23.716Z,15.50
2023-11-15T15:05:52.946Z,15.39
2023-11-15T15:08:22.961Z,15.45
2023-11-15T15:10:54.683Z,15.33
2023-11-15T15:13:22.883Z,15.36
2023-11-15T15:15:50.288Z,15.04
2023-11-15T15:18:22.063Z,15.17
2023-11-15T15:20:53.731Z,14.92
2023-11-15T15:23:21.556Z,14.83
2023-11-15T15:25:48.836Z,15.07
2023-11-15T15:28:16.418Z,15.03
2023-11-15T15:30:44.256Z,15.07
2023-11-15T15:33:12.027Z,15.27
2023-11-15T15:35:40.248Z,15.20
2023-11-15T15:38:09.848Z,15.14
2023-11-15T15:40:39.674Z,15.19
2023-11-15T15:43:07.465Z,15.36
2023-11-15T15:45:36.763Z,15.32
2023-11-15T15:48:05.966Z,15.14
2023-11-15T15:50:34.268Z,15.20
2023-11-15T15:53:01.769Z,14.90
2023-11-15T15:55:29.070Z,15.07
2023-11-15T15:57:56.739Z,15.10
2023-11-15T16:00:25.193Z,15.03
2023-11-15T16:02:54.285Z,15.06
2023-11-15T16:05:22.771Z,15.09
2023-11-15T16:07:50.017Z,15.34
2023-11-15T16:10:17.562Z,15.39
2023-11-15T16:12:44.806Z,15.30
2023-11-15T16:15:17.701Z,15.28
2023-11-15T16:17:45.882Z,15.12
2023-11-15T16:20:13.821Z,15.36
2023-11-15T16:22:41.218Z,15.42
2023-11-15T16:25:09.500Z,15.47
2023-11-15T16:27:37.800Z,15.46
2023-11-15T16:30:06.705Z,15.58
2023-11-15T16:32:36.587Z,15.62
2023-11-15T16:35:05.508Z,15.37
2023-11-15T16:37:36.294Z,15.14
2023-11-15T16:40:07.487Z,15.33
2023-11-15T16:42:34.776Z,15.23
2023-11-15T16:45:02.811Z,15.20
2023-11-15T16:47:30.478Z,15.16
2023-11-15T16:49:59.298Z,15.26
2023-11-15T16:52:26.634Z,15.38
2023-11-15T16:54:54.442Z,15.41
2023-11-15T16:57:22.280Z,15.49
2023-11-15T16:59:50.559Z,15.36
2023-11-15T17:02:18.686Z,15.24
2023-11-15T17:04:46.233Z,15.24
2023-11-15T17:07:13.703Z,15.05
2023-11-15T17:09:42.266Z,15.07
2023-11-15T17:12:09.806Z,15.03
2023-11-15T17:14:37.158Z,15.07
2023-11-15T17:17:05.697Z,15.03
2023-11-15T17:19:33.280Z,15.07
2023-11-15T17:22:00.744Z,14.88
2023-11-15T17:24:28.512Z,14.99
2023-11-15T17:26:56.982Z,15.03
2023-11-15T17:29:24.346Z,14.90
2023-11-15T17:31:52.220Z,14.89
2023-11-15T17:34:20.008Z,15.00
2023-11-15T17:36:47.345Z,15.09
2023-11-15T17:39:16.619Z,15.22
2023-11-15T17:41:43.999Z,15.03
2023-11-15T17:44:15.841Z,14.83
2023-11-15T17:46:43.910Z,14.86
2023-11-15T17:49:12.181Z,14.81
2023-11-15T17:51:39.762Z,14.74
2023-11-15T17:54:08.651Z,15.00
2023-11-15T17:56:36.157Z,14.74
2023-11-15T17:59:05.408Z,14.86
2023-11-15T18:01:34.129Z,14.78
2023-11-15T18:04:02.332Z,14.77
2023-11-15T18:06:29.988Z,14.66
2023-11-15T18:08:57.352Z,14.70
2023-11-15T18:11:24.900Z,14.59
2023-11-15T18:13:54.590Z,14.33
2023-11-15T18:16:23.209Z,14.58
2023-11-15T18:18:51.375Z,14.36
2023-11-15T18:21:18.957Z,14.35
2023-11-15T18:23:46.374Z,14.41
2023-11-15T18:26:14.052Z,14.31
2023-11-15T18:28:41.739Z,14.27
2023-11-15T18:31:09.735Z,14.46
2023-11-15T18:33:40.526Z,14.36
2023-11-15T18:36:11.409Z,14.39
2023-11-15T18:38:40.849Z,14.46
2023-11-15T18:41:09.493Z,14.53
2023-11-15T18:43:37.949Z,14.58
2023-11-15T18:46:08.441Z,14.58
2023-11-15T18:48:38.576Z,14.81
2023-11-15T18:51:07.478Z,14.85
2023-11-15T18:53:35.620Z,14.85
2023-11-15T18:56:03.618Z,14.93
2023-11-15T18:58:32.829Z,14.74
2023-11-15T19:01:01.959Z,14.74
2023-11-15T19:03:29.916Z,14.79
2023-11-15T19:05:58.914Z,14.99
2023-11-15T19:08:28.466Z,15.00
2023-11-15T19:10:57.373Z,15.22
2023-11-15T19:13:28.680Z,15.01
2023-11-15T19:15:59.434Z,14.93
2023-11-15T19:18:30.141Z,14.99
2023-11-15T19:20:59.386Z,15.17
2023-11-15T19:23:29.212Z,14.98
2023-11-15T19:25:57.733Z,14.99
2023-11-15T19:28:26.252Z,15.04
2023-11-15T19:30:55.573Z,15.02
2023-11-15T19:33:24.772Z,15.21
2023-11-15T19:35:54.183Z,15.05
2023-11-15T19:38:23.469Z,14.87
2023-11-15T19:40:51.881Z,14.74
2023-11-15T19:43:20.907Z,14.96
2023-11-15T19:45:56.761Z,14.84
2023-11-15T19:48:28.409Z,14.60
2023-11-15T19:50:57.776Z,14.64
2023-11-15T19:53:27.319Z,14.53
2023-11-15T19:55:56.401Z,14.52
2023-11-15T19:58:27.240Z,14.41
2023-11-15T20:00:57.397Z,14.31
2023-11-15T20:03:27.990Z,14.27
2023-11-15T20:05:57.107Z,14.30
2023-11-15T20:08:26.437Z,14.35
2023-11-15T20:10:56.330Z,14.14
2023-11-15T20:13:25.306Z,13.66
2023-11-15T20:15:55.266Z,14.02
2023-11-15T20:18:24.353Z,13.97
2023-11-15T20:20:53.428Z,13.75
2023-11-15T20:23:22.842Z,13.90
2023-11-15T20:25:51.793Z,13.81
2023-11-15T20:28:24.457Z,13.78
2023-11-15T20:30:55.032Z,13.74
2023-11-15T20:33:23.467Z,13.63
2023-11-15T20:35:51.671Z,13.91
2023-11-15T20:38:20.867Z,13.98
2023-11-15T20:40:52.994Z,13.94
2023-11-15T20:43:22.140Z,13.94
2023-11-15T20:46:04.470Z,13.78
2023-11-15T20:48:40.053Z,13.99
2023-11-15T20:51:07.677Z,14.11
2023-11-15T20:53:35.777Z,14.11
2023-11-15T20:56:03.949Z,14.37
2023-11-15T20:58:31.475Z,13.93
2023-11-15T21:00:58.759Z,14.09
2023-11-15T21:03:27.700Z,14.16
2023-11-15T21:05:55.255Z,14.32
2023-11-15T21:08:23.340Z,14.08
2023-11-15T21:10:54.487Z,14.13
2023-11-15T21:13:23.231Z,13.94
2023-11-15T21:15:51.035Z,13.89
2023-11-15T21:18:18.345Z,13.80
2023-11-15T21:20:45.955Z,13.77
2023-11-15T21:23:13.594Z,13.57
2023-11-15T21:25:40.946Z,13.30
2023-11-15T21:28:08.240Z,13.45
2023-11-15T21:30:38.119Z,13.25
2023-11-15T21:33:05.786Z,13.15
2023-11-15T21:35:33.103Z,13.39
2023-11-15T21:38:04.280Z,13.30
2023-11-15T21:40:31.559Z,13.15
2023-11-15T21:42:59.065Z,13.22
2023-11-15T21:45:26.830Z,13.29
2023-11-15T21:47:55.224Z,13.18
2023-11-15T21:50:22.673Z,13.22
2023-11-15T21:52:50.615Z,13.30
2023-11-15T21:55:18.404Z,13.09
2023-11-15T21:57:47.036Z,12.95
2023-11-15T22:00:17.170Z,13.01
2023-11-15T22:02:45.181Z,13.00
2023-11-15T22:05:12.707Z,13.06
2023-11-15T22:07:40.343Z,13.33
2023-11-15T22:10:13.637Z,13.27
2023-11-15T22:12:42.205Z,13.17
2023-11-15T22:15:10.597Z,13.16
2023-11-15T22:17:39.013Z,12.85
2023-11-15T22:20:11.085Z,12.97
2023-11-15T22:22:39.005Z,12.92
2023-11-15T22:25:09.246Z,13.18
2023-11-15T22:27:37.062Z,13.15
2023-11-15T22:30:05.651Z,12.95
2023-11-15T22:32:34.311Z,12.79
2023-11-15T22:35:03.999Z,12.56
2023-11-15T22:37:31.504Z,12.54
2023-11-15T22:39:59.514Z,12.56
2023-11-15T22:42:27.744Z,12.42
2023-11-15T22:44:55.421Z,12.51
2023-11-15T22:47:22.678Z,12.35
2023-11-15T22:49:51.375Z,12.31
2023-11-15T22:52:18.866Z,12.21
2023-11-15T22:54:46.090Z,12.53
2023-11-15T22:57:13.372Z,12.43
2023-11-15T22:59:41.117Z,12.50
2023-11-15T23:02:08.797Z,12.50
2023-11-15T23:04:36.503Z,12.63
2023-11-15T23:07:04.362Z,12.29
2023-11-15T23:09:32.636Z,12.55
2023-11-15T23:11:59.949Z,12.58
2023-11-15T23:14:28.320Z,12.37
2023-11-15T23:16:56.544Z,12.42
2023-11-15T23:19:23.818Z,12.60
2023-11-15T23:21:59.287Z,12.42
2023-11-15T23:24:30.805Z,12.55
2023-11-15T23:27:00.109Z,12.35
2023-11-15T23:29:29.378Z,12.43
2023-11-15T23:31:57.668Z,12.47
2023-11-15T23:34:25.335Z,12.64
2023-11-15T23:36:53.259Z,12.53
2023-11-15T23:39:23.894Z,12.78
2023-11-15T23:41:51.666Z,12.74
2023-11-15T23:44:19.511Z,12.65
2023-11-15T23:46:50.646Z,12.48
2023-11-15T23:49:19.684Z,12.69
2023-11-15T23:51:47.118Z,12.51
2023-11-15T23:54:14.380Z,12.27
2023-11-15T23:56:44.856Z,12.39
2023-11-15T23:59:12.249Z,12.41
